sensor_id;sensor_type;location;lat;lon;timestamp;P1;durP1;ratioP1;P2;durP2;ratioP2
3297;SDS011;1661;53.572;10.174;2022-10-16T00:00:35;13.07;;;9.60;;
3297;SDS011;1661;53.572;10.174;2022-10-16T00:03:04;8.10;;;7.33;;
3297;SDS011;1661;53.572;10.174;2022-10-16T00:05:31;11.53;;;8.77;;
3297;SDS011;1661;53.572;10.174;2022-10-16T00:07:58;10.90;;;9.80;;
3297;SDS011;1661;53.572;10.174;2022-10-16T00:10:25;13.17;;;10.83;;
3297;SDS011;1661;53.572;10.174;2022-10-16T00:12:53;12.23;;;11.03;;
3297;SDS011;1661;53.572;10.174;2022-10-16T00:15:20;12.27;;;10.30;;
3297;SDS011;1661;53.572;10.174;2022-10-16T00:17:46;11.67;;;10.43;;
3297;SDS011;1661;53.572;10.174;2022-10-16T00:20:13;11.70;;;8.73;;
3297;SDS011;1661;53.572;10.174;2022-10-16T00:22:40;11.57;;;10.03;;
3297;SDS011;1661;53.572;10.174;2022-10-16T00:25:06;19.67;;;10.60;;
3297;SDS011;1661;53.572;10.174;2022-10-16T00:27:33;11.63;;;10.40;;
3297;SDS011;1661;53.572;10.174;2022-10-16T00:30:02;10.43;;;9.43;;
3297;SDS011;1661;53.572;10.174;2022-10-16T00:32:30;13.27;;;10.03;;
3297;SDS011;1661;53.572;10.174;2022-10-16T00:34:56;10.33;;;9.30;;
3297;SDS011;1661;53.572;10.174;2022-10-16T00:37:23;12.03;;;10.00;;
3297;SDS011;1661;53.572;10.174;2022-10-16T00:39:50;10.30;;;9.30;;
3297;SDS011;1661;53.572;10.174;2022-10-16T00:42:17;11.50;;;10.23;;
3297;SDS011;1661;53.572;10.174;2022-10-16T00:44:46;10.57;;;9.67;;
3297;SDS011;1661;53.572;10.174;2022-10-16T00:47:19;13.30;;;10.73;;
3297;SDS011;1661;53.572;10.174;2022-10-16T00:49:51;16.63;;;9.10;;
3297;SDS011;1661;53.572;10.174;2022-10-16T00:52:21;14.70;;;10.93;;
3297;SDS011;1661;53.572;10.174;2022-10-16T00:54:48;13.70;;;10.47;;
3297;SDS011;1661;53.572;10.174;2022-10-16T00:57:15;10.10;;;9.07;;
3297;SDS011;1661;53.572;10.174;2022-10-16T00:59:42;9.17;;;8.40;;
3297;SDS011;1661;53.572;10.174;2022-10-16T01:02:10;13.10;;;10.83;;
3297;SDS011;1661;53.572;10.174;2022-10-16T01:04:41;11.93;;;10.63;;
3297;SDS011;1661;53.572;10.174;2022-10-16T01:07:12;15.07;;;10.50;;
3297;SDS011;1661;53.572;10.174;2022-10-16T01:09:51;12.70;;;10.70;;
3297;SDS011;1661;53.572;10.174;2022-10-16T01:12:26;17.57;;;11.43;;
3297;SDS011;1661;53.572;10.174;2022-10-16T01:15:04;11.23;;;10.13;;
3297;SDS011;1661;53.572;10.174;2022-10-16T01:17:38;11.60;;;10.30;;
3297;SDS011;1661;53.572;10.174;2022-10-16T01:20:13;11.80;;;10.57;;
3297;SDS011;1661;53.572;10.174;2022-10-16T01:22:49;10.20;;;9.10;;
3297;SDS011;1661;53.572;10.174;2022-10-16T01:25:31;9.77;;;8.70;;
3297;SDS011;1661;53.572;10.174;2022-10-16T01:28:12;9.90;;;8.87;;
3297;SDS011;1661;53.572;10.174;2022-10-16T01:30:42;10.70;;;9.07;;
3297;SDS011;1661;53.572;10.174;2022-10-16T01:33:13;18.93;;;8.67;;
3297;SDS011;1661;53.572;10.174;2022-10-16T01:35:45;10.43;;;7.43;;
3297;SDS011;1661;53.572;10.174;2022-10-16T01:38:16;9.83;;;7.37;;
3297;SDS011;1661;53.572;10.174;2022-10-16T01:40:47;12.43;;;7.03;;
3297;SDS011;1661;53.572;10.174;2022-10-16T01:43:18;12.70;;;6.40;;
3297;SDS011;1661;53.572;10.174;2022-10-16T01:45:48;10.07;;;6.70;;
3297;SDS011;1661;53.572;10.174;2022-10-16T01:48:17;7.23;;;5.40;;
3297;SDS011;1661;53.572;10.174;2022-10-16T01:50:48;5.97;;;5.47;;
3297;SDS011;1661;53.572;10.174;2022-10-16T01:53:18;11.30;;;5.87;;
3297;SDS011;1661;53.572;10.174;2022-10-16T01:55:46;8.40;;;5.23;;
3297;SDS011;1661;53.572;10.174;2022-10-16T01:58:15;5.97;;;5.37;;
3297;SDS011;1661;53.572;10.174;2022-10-16T02:00:44;5.97;;;4.53;;
3297;SDS011;1661;53.572;10.174;2022-10-16T02:03:14;6.83;;;5.47;;
3297;SDS011;1661;53.572;10.174;2022-10-16T02:05:44;6.03;;;5.50;;
3297;SDS011;1661;53.572;10.174;2022-10-16T02:08:12;6.10;;;5.07;;
3297;SDS011;1661;53.572;10.174;2022-10-16T02:10:39;8.70;;;4.77;;
3297;SDS011;1661;53.572;10.174;2022-10-16T02:13:08;5.30;;;4.90;;
3297;SDS011;1661;53.572;10.174;2022-10-16T02:15:36;4.10;;;3.80;;
3297;SDS011;1661;53.572;10.174;2022-10-16T02:18:05;7.70;;;4.90;;
3297;SDS011;1661;53.572;10.174;2022-10-16T02:20:34;4.50;;;4.20;;
3297;SDS011;1661;53.572;10.174;2022-10-16T02:23:04;6.80;;;5.03;;
3297;SDS011;1661;53.572;10.174;2022-10-16T02:25:36;6.20;;;4.63;;
3297;SDS011;1661;53.572;10.174;2022-10-16T02:28:06;6.10;;;5.20;;
3297;SDS011;1661;53.572;10.174;2022-10-16T02:30:38;5.30;;;4.80;;
3297;SDS011;1661;53.572;10.174;2022-10-16T02:33:10;5.70;;;4.57;;
3297;SDS011;1661;53.572;10.174;2022-10-16T02:35:39;4.70;;;4.37;;
3297;SDS011;1661;53.572;10.174;2022-10-16T02:38:07;4.00;;;3.70;;
3297;SDS011;1661;53.572;10.174;2022-10-16T02:40:35;9.60;;;4.67;;
3297;SDS011;1661;53.572;10.174;2022-10-16T02:43:03;3.70;;;3.40;;
3297;SDS011;1661;53.572;10.174;2022-10-16T02:45:31;5.87;;;4.00;;
3297;SDS011;1661;53.572;10.174;2022-10-16T02:47:58;9.93;;;4.60;;
3297;SDS011;1661;53.572;10.174;2022-10-16T02:50:26;4.00;;;3.70;;
3297;SDS011;1661;53.572;10.174;2022-10-16T02:52:53;4.00;;;3.60;;
3297;SDS011;1661;53.572;10.174;2022-10-16T02:55:20;3.93;;;3.63;;
3297;SDS011;1661;53.572;10.174;2022-10-16T02:57:46;4.43;;;3.10;;
3297;SDS011;1661;53.572;10.174;2022-10-16T03:00:14;7.60;;;3.17;;
3297;SDS011;1661;53.572;10.174;2022-10-16T03:02:42;5.87;;;3.57;;
3297;SDS011;1661;53.572;10.174;2022-10-16T03:05:09;4.07;;;2.90;;
3297;SDS011;1661;53.572;10.174;2022-10-16T03:07:37;5.40;;;2.90;;
3297;SDS011;1661;53.572;10.174;2022-10-16T03:10:04;5.90;;;3.43;;
3297;SDS011;1661;53.572;10.174;2022-10-16T03:12:32;4.77;;;2.70;;
3297;SDS011;1661;53.572;10.174;2022-10-16T03:14:58;3.33;;;3.00;;
3297;SDS011;1661;53.572;10.174;2022-10-16T03:17:25;6.03;;;3.03;;
3297;SDS011;1661;53.572;10.174;2022-10-16T03:19:52;3.00;;;2.80;;
3297;SDS011;1661;53.572;10.174;2022-10-16T03:22:19;4.60;;;3.20;;
3297;SDS011;1661;53.572;10.174;2022-10-16T03:24:47;4.67;;;3.20;;
3297;SDS011;1661;53.572;10.174;2022-10-16T03:27:13;3.77;;;3.57;;
3297;SDS011;1661;53.572;10.174;2022-10-16T03:29:40;7.20;;;3.10;;
3297;SDS011;1661;53.572;10.174;2022-10-16T03:32:07;5.80;;;3.70;;
3297;SDS011;1661;53.572;10.174;2022-10-16T03:34:33;9.50;;;3.20;;
3297;SDS011;1661;53.572;10.174;2022-10-16T03:37:00;4.97;;;3.10;;
3297;SDS011;1661;53.572;10.174;2022-10-16T03:39:27;4.03;;;3.47;;
3297;SDS011;1661;53.572;10.174;2022-10-16T03:41:55;6.27;;;3.70;;
3297;SDS011;1661;53.572;10.174;2022-10-16T03:44:21;4.80;;;2.63;;
3297;SDS011;1661;53.572;10.174;2022-10-16T03:46:48;3.70;;;3.40;;
3297;SDS011;1661;53.572;10.174;2022-10-16T03:49:15;11.83;;;3.40;;
3297;SDS011;1661;53.572;10.174;2022-10-16T03:51:42;9.57;;;2.73;;
3297;SDS011;1661;53.572;10.174;2022-10-16T03:54:09;6.73;;;2.97;;
3297;SDS011;1661;53.572;10.174;2022-10-16T03:56:36;4.67;;;2.33;;
3297;SDS011;1661;53.572;10.174;2022-10-16T03:59:04;2.90;;;2.60;;
3297;SDS011;1661;53.572;10.174;2022-10-16T04:01:31;4.20;;;2.90;;
3297;SDS011;1661;53.572;10.174;2022-10-16T04:03:57;4.43;;;2.70;;
3297;SDS011;1661;53.572;10.174;2022-10-16T04:06:24;3.27;;;2.73;;
3297;SDS011;1661;53.572;10.174;2022-10-16T04:08:51;4.97;;;3.53;;
3297;SDS011;1661;53.572;10.174;2022-10-16T04:11:17;10.53;;;3.47;;
3297;SDS011;1661;53.572;10.174;2022-10-16T04:13:44;3.30;;;2.00;;
3297;SDS011;1661;53.572;10.174;2022-10-16T04:16:12;5.90;;;3.27;;
3297;SDS011;1661;53.572;10.174;2022-10-16T04:18:39;3.23;;;2.43;;
3297;SDS011;1661;53.572;10.174;2022-10-16T04:21:06;6.30;;;3.03;;
3297;SDS011;1661;53.572;10.174;2022-10-16T04:23:33;4.67;;;3.20;;
3297;SDS011;1661;53.572;10.174;2022-10-16T04:26:00;10.20;;;2.60;;
3297;SDS011;1661;53.572;10.174;2022-10-16T04:28:27;8.23;;;3.00;;
3297;SDS011;1661;53.572;10.174;2022-10-16T04:30:54;2.70;;;2.50;;
3297;SDS011;1661;53.572;10.174;2022-10-16T04:33:22;4.83;;;3.13;;
3297;SDS011;1661;53.572;10.174;2022-10-16T04:35:55;6.20;;;2.90;;
3297;SDS011;1661;53.572;10.174;2022-10-16T04:38:22;5.00;;;2.97;;
3297;SDS011;1661;53.572;10.174;2022-10-16T04:40:49;4.83;;;2.90;;
3297;SDS011;1661;53.572;10.174;2022-10-16T04:43:16;8.83;;;2.40;;
3297;SDS011;1661;53.572;10.174;2022-10-16T04:45:43;7.97;;;2.80;;
3297;SDS011;1661;53.572;10.174;2022-10-16T04:48:09;3.60;;;2.20;;
3297;SDS011;1661;53.572;10.174;2022-10-16T04:50:38;6.50;;;2.77;;
3297;SDS011;1661;53.572;10.174;2022-10-16T04:53:04;9.33;;;2.77;;
3297;SDS011;1661;53.572;10.174;2022-10-16T04:55:31;8.83;;;2.43;;
3297;SDS011;1661;53.572;10.174;2022-10-16T04:57:58;4.80;;;2.53;;
3297;SDS011;1661;53.572;10.174;2022-10-16T05:00:25;9.70;;;3.00;;
3297;SDS011;1661;53.572;10.174;2022-10-16T05:02:52;4.70;;;2.47;;
3297;SDS011;1661;53.572;10.174;2022-10-16T05:05:19;5.63;;;2.73;;
3297;SDS011;1661;53.572;10.174;2022-10-16T05:07:47;4.97;;;2.93;;
3297;SDS011;1661;53.572;10.174;2022-10-16T05:10:14;10.37;;;3.73;;
3297;SDS011;1661;53.572;10.174;2022-10-16T05:12:41;4.27;;;2.83;;
3297;SDS011;1661;53.572;10.174;2022-10-16T05:15:08;7.13;;;2.70;;
3297;SDS011;1661;53.572;10.174;2022-10-16T05:17:35;6.97;;;2.90;;
3297;SDS011;1661;53.572;10.174;2022-10-16T05:20:02;5.50;;;2.80;;
3297;SDS011;1661;53.572;10.174;2022-10-16T05:22:30;4.17;;;3.00;;
3297;SDS011;1661;53.572;10.174;2022-10-16T05:24:58;4.00;;;2.90;;
3297;SDS011;1661;53.572;10.174;2022-10-16T05:27:24;8.27;;;3.73;;
3297;SDS011;1661;53.572;10.174;2022-10-16T05:29:51;6.00;;;2.87;;
3297;SDS011;1661;53.572;10.174;2022-10-16T05:32:18;2.70;;;2.50;;
3297;SDS011;1661;53.572;10.174;2022-10-16T05:34:45;11.53;;;3.80;;
3297;SDS011;1661;53.572;10.174;2022-10-16T05:37:12;10.07;;;3.40;;
3297;SDS011;1661;53.572;10.174;2022-10-16T05:39:39;4.33;;;2.83;;
3297;SDS011;1661;53.572;10.174;2022-10-16T05:42:07;8.73;;;3.03;;
3297;SDS011;1661;53.572;10.174;2022-10-16T05:44:34;7.90;;;3.43;;
3297;SDS011;1661;53.572;10.174;2022-10-16T05:47:00;5.07;;;3.27;;
3297;SDS011;1661;53.572;10.174;2022-10-16T05:49:27;3.97;;;3.60;;
3297;SDS011;1661;53.572;10.174;2022-10-16T05:51:54;9.60;;;4.10;;
3297;SDS011;1661;53.572;10.174;2022-10-16T05:54:20;4.70;;;3.37;;
3297;SDS011;1661;53.572;10.174;2022-10-16T05:56:47;5.47;;;4.43;;
3297;SDS011;1661;53.572;10.174;2022-10-16T05:59:15;2.70;;;2.50;;
3297;SDS011;1661;53.572;10.174;2022-10-16T06:01:42;7.70;;;2.97;;
3297;SDS011;1661;53.572;10.174;2022-10-16T06:04:08;7.93;;;2.83;;
3297;SDS011;1661;53.572;10.174;2022-10-16T06:06:35;6.90;;;3.40;;
3297;SDS011;1661;53.572;10.174;2022-10-16T06:09:02;5.63;;;3.17;;
3297;SDS011;1661;53.572;10.174;2022-10-16T06:11:30;11.40;;;3.90;;
3297;SDS011;1661;53.572;10.174;2022-10-16T06:13:58;3.20;;;2.83;;
3297;SDS011;1661;53.572;10.174;2022-10-16T06:16:29;4.20;;;3.20;;
3297;SDS011;1661;53.572;10.174;2022-10-16T06:18:55;18.87;;;4.30;;
3297;SDS011;1661;53.572;10.174;2022-10-16T06:21:24;3.13;;;2.80;;
3297;SDS011;1661;53.572;10.174;2022-10-16T06:23:52;5.70;;;2.80;;
3297;SDS011;1661;53.572;10.174;2022-10-16T06:26:20;7.83;;;3.33;;
3297;SDS011;1661;53.572;10.174;2022-10-16T06:28:47;5.00;;;2.90;;
3297;SDS011;1661;53.572;10.174;2022-10-16T06:31:15;8.90;;;3.20;;
3297;SDS011;1661;53.572;10.174;2022-10-16T06:33:43;7.53;;;3.50;;
3297;SDS011;1661;53.572;10.174;2022-10-16T06:36:12;13.53;;;4.07;;
3297;SDS011;1661;53.572;10.174;2022-10-16T06:38:42;5.87;;;3.40;;
3297;SDS011;1661;53.572;10.174;2022-10-16T06:41:11;5.97;;;3.97;;
3297;SDS011;1661;53.572;10.174;2022-10-16T06:43:39;5.00;;;3.87;;
3297;SDS011;1661;53.572;10.174;2022-10-16T06:46:07;4.17;;;2.73;;
3297;SDS011;1661;53.572;10.174;2022-10-16T06:48:35;12.80;;;3.20;;
3297;SDS011;1661;53.572;10.174;2022-10-16T06:51:05;6.03;;;3.47;;
3297;SDS011;1661;53.572;10.174;2022-10-16T06:53:33;8.33;;;4.33;;
3297;SDS011;1661;53.572;10.174;2022-10-16T06:56:06;6.17;;;3.10;;
3297;SDS011;1661;53.572;10.174;2022-10-16T06:58:33;3.40;;;2.90;;
3297;SDS011;1661;53.572;10.174;2022-10-16T07:01:00;8.90;;;3.80;;
3297;SDS011;1661;53.572;10.174;2022-10-16T07:03:27;9.47;;;3.40;;
3297;SDS011;1661;53.572;10.174;2022-10-16T07:05:53;5.57;;;3.50;;
3297;SDS011;1661;53.572;10.174;2022-10-16T07:08:22;4.73;;;3.60;;
3297;SDS011;1661;53.572;10.174;2022-10-16T07:10:57;7.43;;;4.30;;
3297;SDS011;1661;53.572;10.174;2022-10-16T07:13:24;5.83;;;3.70;;
3297;SDS011;1661;53.572;10.174;2022-10-16T07:15:51;5.40;;;3.97;;
3297;SDS011;1661;53.572;10.174;2022-10-16T07:18:17;6.23;;;3.87;;
3297;SDS011;1661;53.572;10.174;2022-10-16T07:20:51;8.40;;;4.07;;
3297;SDS011;1661;53.572;10.174;2022-10-16T07:23:18;6.10;;;4.53;;
3297;SDS011;1661;53.572;10.174;2022-10-16T07:25:46;5.10;;;3.93;;
3297;SDS011;1661;53.572;10.174;2022-10-16T07:28:19;6.90;;;5.20;;
3297;SDS011;1661;53.572;10.174;2022-10-16T07:30:46;6.27;;;4.37;;
3297;SDS011;1661;53.572;10.174;2022-10-16T07:33:13;8.57;;;4.77;;
3297;SDS011;1661;53.572;10.174;2022-10-16T07:35:46;13.53;;;5.20;;
3297;SDS011;1661;53.572;10.174;2022-10-16T07:38:14;5.30;;;4.80;;
3297;SDS011;1661;53.572;10.174;2022-10-16T07:40:40;6.37;;;5.20;;
3297;SDS011;1661;53.572;10.174;2022-10-16T07:43:11;9.57;;;4.30;;
3297;SDS011;1661;53.572;10.174;2022-10-16T07:45:45;11.27;;;4.80;;
3297;SDS011;1661;53.572;10.174;2022-10-16T07:48:14;8.43;;;5.07;;
3297;SDS011;1661;53.572;10.174;2022-10-16T07:50:40;12.40;;;4.37;;
3297;SDS011;1661;53.572;10.174;2022-10-16T07:53:07;6.33;;;4.17;;
3297;SDS011;1661;53.572;10.174;2022-10-16T07:55:34;9.93;;;5.90;;
3297;SDS011;1661;53.572;10.174;2022-10-16T07:58:01;4.50;;;3.90;;
3297;SDS011;1661;53.572;10.174;2022-10-16T08:00:29;4.33;;;3.93;;
3297;SDS011;1661;53.572;10.174;2022-10-16T08:02:56;6.80;;;4.33;;
3297;SDS011;1661;53.572;10.174;2022-10-16T08:05:24;4.60;;;4.20;;
3297;SDS011;1661;53.572;10.174;2022-10-16T08:07:51;4.10;;;3.70;;
3297;SDS011;1661;53.572;10.174;2022-10-16T08:10:19;9.70;;;4.33;;
3297;SDS011;1661;53.572;10.174;2022-10-16T08:12:47;11.93;;;4.80;;
3297;SDS011;1661;53.572;10.174;2022-10-16T08:15:14;5.60;;;4.13;;
3297;SDS011;1661;53.572;10.174;2022-10-16T08:17:42;4.47;;;3.80;;
3297;SDS011;1661;53.572;10.174;2022-10-16T08:20:09;3.77;;;3.00;;
3297;SDS011;1661;53.572;10.174;2022-10-16T08:22:36;12.73;;;4.07;;
3297;SDS011;1661;53.572;10.174;2022-10-16T08:25:03;5.40;;;3.97;;
3297;SDS011;1661;53.572;10.174;2022-10-16T08:27:31;10.23;;;3.87;;
3297;SDS011;1661;53.572;10.174;2022-10-16T08:29:57;6.47;;;3.73;;
3297;SDS011;1661;53.572;10.174;2022-10-16T08:32:24;7.97;;;3.40;;
3297;SDS011;1661;53.572;10.174;2022-10-16T08:34:52;3.60;;;3.17;;
3297;SDS011;1661;53.572;10.174;2022-10-16T08:37:19;3.20;;;2.93;;
3297;SDS011;1661;53.572;10.174;2022-10-16T08:39:45;10.93;;;3.33;;
3297;SDS011;1661;53.572;10.174;2022-10-16T08:42:17;7.70;;;3.90;;
3297;SDS011;1661;53.572;10.174;2022-10-16T08:45:00;4.57;;;3.33;;
3297;SDS011;1661;53.572;10.174;2022-10-16T08:47:35;5.57;;;3.27;;
3297;SDS011;1661;53.572;10.174;2022-10-16T08:50:13;3.13;;;2.83;;
3297;SDS011;1661;53.572;10.174;2022-10-16T08:52:43;5.57;;;3.30;;
3297;SDS011;1661;53.572;10.174;2022-10-16T08:55:16;5.60;;;2.90;;
3297;SDS011;1661;53.572;10.174;2022-10-16T08:57:53;2.90;;;2.50;;
3297;SDS011;1661;53.572;10.174;2022-10-16T09:00:20;9.97;;;2.80;;
3297;SDS011;1661;53.572;10.174;2022-10-16T09:02:50;3.10;;;2.73;;
3297;SDS011;1661;53.572;10.174;2022-10-16T09:05:27;4.00;;;2.13;;
3297;SDS011;1661;53.572;10.174;2022-10-16T09:08:11;10.83;;;2.50;;
3297;SDS011;1661;53.572;10.174;2022-10-16T09:10:46;3.03;;;2.23;;
3297;SDS011;1661;53.572;10.174;2022-10-16T09:13:22;4.60;;;2.93;;
3297;SDS011;1661;53.572;10.174;2022-10-16T09:15:54;3.43;;;2.40;;
3297;SDS011;1661;53.572;10.174;2022-10-16T09:18:29;2.93;;;2.73;;
3297;SDS011;1661;53.572;10.174;2022-10-16T09:21:04;2.67;;;2.47;;
3297;SDS011;1661;53.572;10.174;2022-10-16T09:23:37;2.37;;;2.13;;
3297;SDS011;1661;53.572;10.174;2022-10-16T09:26:04;3.60;;;2.03;;
3297;SDS011;1661;53.572;10.174;2022-10-16T09:28:34;3.10;;;1.87;;
3297;SDS011;1661;53.572;10.174;2022-10-16T09:31:01;3.00;;;1.90;;
3297;SDS011;1661;53.572;10.174;2022-10-16T09:33:28;3.93;;;1.90;;
3297;SDS011;1661;53.572;10.174;2022-10-16T09:35:59;6.07;;;2.23;;
3297;SDS011;1661;53.572;10.174;2022-10-16T09:38:30;2.73;;;2.00;;
3297;SDS011;1661;53.572;10.174;2022-10-16T09:40:58;5.90;;;2.33;;
3297;SDS011;1661;53.572;10.174;2022-10-16T09:43:28;2.40;;;2.10;;
3297;SDS011;1661;53.572;10.174;2022-10-16T09:46:00;5.13;;;1.80;;
3297;SDS011;1661;53.572;10.174;2022-10-16T09:48:30;4.43;;;1.73;;
3297;SDS011;1661;53.572;10.174;2022-10-16T09:51:02;3.07;;;1.50;;
3297;SDS011;1661;53.572;10.174;2022-10-16T09:53:39;2.13;;;1.50;;
3297;SDS011;1661;53.572;10.174;2022-10-16T09:56:09;6.50;;;1.57;;
3297;SDS011;1661;53.572;10.174;2022-10-16T09:58:41;13.73;;;1.90;;
3297;SDS011;1661;53.572;10.174;2022-10-16T10:01:11;2.17;;;1.77;;
3297;SDS011;1661;53.572;10.174;2022-10-16T10:03:40;3.57;;;2.13;;
3297;SDS011;1661;53.572;10.174;2022-10-16T10:06:15;2.77;;;1.60;;
3297;SDS011;1661;53.572;10.174;2022-10-16T10:08:57;3.97;;;1.43;;
3297;SDS011;1661;53.572;10.174;2022-10-16T10:11:37;2.50;;;1.70;;
3297;SDS011;1661;53.572;10.174;2022-10-16T10:14:16;2.57;;;1.70;;
3297;SDS011;1661;53.572;10.174;2022-10-16T10:16:48;4.60;;;1.47;;
3297;SDS011;1661;53.572;10.174;2022-10-16T10:19:16;3.70;;;2.10;;
3297;SDS011;1661;53.572;10.174;2022-10-16T10:21:43;5.17;;;1.60;;
3297;SDS011;1661;53.572;10.174;2022-10-16T10:24:13;3.30;;;1.57;;
3297;SDS011;1661;53.572;10.174;2022-10-16T10:26:47;4.30;;;1.83;;
3297;SDS011;1661;53.572;10.174;2022-10-16T10:29:23;4.73;;;1.77;;
3297;SDS011;1661;53.572;10.174;2022-10-16T10:31:59;3.90;;;1.90;;
3297;SDS011;1661;53.572;10.174;2022-10-16T10:34:37;3.50;;;1.43;;
3297;SDS011;1661;53.572;10.174;2022-10-16T10:37:20;5.57;;;1.67;;
3297;SDS011;1661;53.572;10.174;2022-10-16T10:40:04;7.00;;;1.60;;
3297;SDS011;1661;53.572;10.174;2022-10-16T10:42:40;3.47;;;1.30;;
3297;SDS011;1661;53.572;10.174;2022-10-16T10:45:17;6.50;;;1.90;;
3297;SDS011;1661;53.572;10.174;2022-10-16T10:47:59;3.87;;;1.43;;
3297;SDS011;1661;53.572;10.174;2022-10-16T10:50:39;5.40;;;1.63;;
3297;SDS011;1661;53.572;10.174;2022-10-16T10:53:16;5.90;;;1.50;;
3297;SDS011;1661;53.572;10.174;2022-10-16T10:55:52;3.33;;;1.70;;
3297;SDS011;1661;53.572;10.174;2022-10-16T10:58:39;2.70;;;1.47;;
3297;SDS011;1661;53.572;10.174;2022-10-16T11:01:18;5.93;;;1.83;;
3297;SDS011;1661;53.572;10.174;2022-10-16T11:03:58;3.27;;;1.53;;
3297;SDS011;1661;53.572;10.174;2022-10-16T11:06:33;3.17;;;1.50;;
3297;SDS011;1661;53.572;10.174;2022-10-16T11:09:03;4.10;;;2.13;;
3297;SDS011;1661;53.572;10.174;2022-10-16T11:11:43;2.60;;;1.63;;
3297;SDS011;1661;53.572;10.174;2022-10-16T11:14:13;4.47;;;1.60;;
3297;SDS011;1661;53.572;10.174;2022-10-16T11:16:45;2.80;;;1.23;;
3297;SDS011;1661;53.572;10.174;2022-10-16T11:19:20;4.90;;;1.80;;
3297;SDS011;1661;53.572;10.174;2022-10-16T11:21:55;4.70;;;1.70;;
3297;SDS011;1661;53.572;10.174;2022-10-16T11:24:32;9.03;;;1.90;;
3297;SDS011;1661;53.572;10.174;2022-10-16T11:27:09;6.07;;;1.60;;
3297;SDS011;1661;53.572;10.174;2022-10-16T11:29:43;3.63;;;1.70;;
3297;SDS011;1661;53.572;10.174;2022-10-16T11:32:19;4.80;;;1.60;;
3297;SDS011;1661;53.572;10.174;2022-10-16T11:34:50;5.23;;;1.60;;
3297;SDS011;1661;53.572;10.174;2022-10-16T11:37:23;5.80;;;1.90;;
3297;SDS011;1661;53.572;10.174;2022-10-16T11:39:56;5.50;;;1.40;;
3297;SDS011;1661;53.572;10.174;2022-10-16T11:42:32;3.60;;;1.10;;
3297;SDS011;1661;53.572;10.174;2022-10-16T11:45:08;2.97;;;1.53;;
3297;SDS011;1661;53.572;10.174;2022-10-16T11:47:48;6.60;;;1.60;;
3297;SDS011;1661;53.572;10.174;2022-10-16T11:50:22;10.10;;;1.50;;
3297;SDS011;1661;53.572;10.174;2022-10-16T11:52:52;1.90;;;1.10;;
3297;SDS011;1661;53.572;10.174;2022-10-16T11:55:27;3.40;;;1.20;;
3297;SDS011;1661;53.572;10.174;2022-10-16T11:57:59;2.20;;;1.50;;
3297;SDS011;1661;53.572;10.174;2022-10-16T12:00:31;3.57;;;1.60;;
3297;SDS011;1661;53.572;10.174;2022-10-16T12:03:04;3.73;;;1.07;;
3297;SDS011;1661;53.572;10.174;2022-10-16T12:05:41;4.27;;;2.00;;
3297;SDS011;1661;53.572;10.174;2022-10-16T12:08:21;3.20;;;1.50;;
3297;SDS011;1661;53.572;10.174;2022-10-16T12:10:48;10.07;;;2.00;;
3297;SDS011;1661;53.572;10.174;2022-10-16T12:13:30;4.37;;;1.70;;
3297;SDS011;1661;53.572;10.174;2022-10-16T12:16:04;5.40;;;1.83;;
3297;SDS011;1661;53.572;10.174;2022-10-16T12:18:50;2.13;;;1.20;;
3297;SDS011;1661;53.572;10.174;2022-10-16T12:21:35;1.97;;;1.40;;
3297;SDS011;1661;53.572;10.174;2022-10-16T12:24:03;2.50;;;1.60;;
3297;SDS011;1661;53.572;10.174;2022-10-16T12:26:31;4.50;;;1.50;;
3297;SDS011;1661;53.572;10.174;2022-10-16T12:29:11;4.73;;;1.67;;
3297;SDS011;1661;53.572;10.174;2022-10-16T12:31:43;6.00;;;1.43;;
3297;SDS011;1661;53.572;10.174;2022-10-16T12:34:14;2.70;;;1.60;;
3297;SDS011;1661;53.572;10.174;2022-10-16T12:36:48;5.40;;;2.23;;
3297;SDS011;1661;53.572;10.174;2022-10-16T12:39:20;5.80;;;1.23;;
3297;SDS011;1661;53.572;10.174;2022-10-16T12:41:47;5.27;;;1.50;;
3297;SDS011;1661;53.572;10.174;2022-10-16T12:44:27;5.73;;;1.60;;
3297;SDS011;1661;53.572;10.174;2022-10-16T12:46:58;3.93;;;1.33;;
3297;SDS011;1661;53.572;10.174;2022-10-16T12:49:29;2.60;;;1.47;;
3297;SDS011;1661;53.572;10.174;2022-10-16T12:51:58;5.07;;;1.50;;
3297;SDS011;1661;53.572;10.174;2022-10-16T12:54:26;4.57;;;1.43;;
3297;SDS011;1661;53.572;10.174;2022-10-16T12:57:03;3.30;;;2.43;;
3297;SDS011;1661;53.572;10.174;2022-10-16T12:59:50;4.70;;;1.90;;
3297;SDS011;1661;53.572;10.174;2022-10-16T13:02:41;10.00;;;1.97;;
3297;SDS011;1661;53.572;10.174;2022-10-16T13:05:24;6.30;;;2.30;;
3297;SDS011;1661;53.572;10.174;2022-10-16T13:08:02;8.93;;;1.97;;
3297;SDS011;1661;53.572;10.174;2022-10-16T13:10:46;6.77;;;1.73;;
3297;SDS011;1661;53.572;10.174;2022-10-16T13:13:26;5.03;;;1.80;;
3297;SDS011;1661;53.572;10.174;2022-10-16T13:16:17;9.90;;;1.80;;
3297;SDS011;1661;53.572;10.174;2022-10-16T13:18:54;5.70;;;1.57;;
3297;SDS011;1661;53.572;10.174;2022-10-16T13:21:30;4.40;;;1.60;;
3297;SDS011;1661;53.572;10.174;2022-10-16T13:24:08;7.07;;;2.13;;
3297;SDS011;1661;53.572;10.174;2022-10-16T13:26:43;8.50;;;1.90;;
3297;SDS011;1661;53.572;10.174;2022-10-16T13:29:15;5.53;;;1.53;;
3297;SDS011;1661;53.572;10.174;2022-10-16T13:31:43;7.73;;;1.30;;
3297;SDS011;1661;53.572;10.174;2022-10-16T13:34:12;4.97;;;1.87;;
3297;SDS011;1661;53.572;10.174;2022-10-16T13:36:43;7.73;;;2.20;;
3297;SDS011;1661;53.572;10.174;2022-10-16T13:39:12;5.57;;;1.43;;
3297;SDS011;1661;53.572;10.174;2022-10-16T13:41:42;3.00;;;2.00;;
3297;SDS011;1661;53.572;10.174;2022-10-16T13:44:12;5.13;;;1.93;;
3297;SDS011;1661;53.572;10.174;2022-10-16T13:46:44;5.60;;;2.00;;
3297;SDS011;1661;53.572;10.174;2022-10-16T13:49:12;3.13;;;1.50;;
3297;SDS011;1661;53.572;10.174;2022-10-16T13:51:41;7.43;;;2.67;;
3297;SDS011;1661;53.572;10.174;2022-10-16T13:54:20;5.27;;;2.27;;
3297;SDS011;1661;53.572;10.174;2022-10-16T13:56:47;5.23;;;2.13;;
3297;SDS011;1661;53.572;10.174;2022-10-16T13:59:22;4.67;;;2.00;;
3297;SDS011;1661;53.572;10.174;2022-10-16T14:01:51;3.97;;;1.83;;
3297;SDS011;1661;53.572;10.174;2022-10-16T14:04:22;2.67;;;2.23;;
3297;SDS011;1661;53.572;10.174;2022-10-16T14:06:51;2.70;;;1.60;;
3297;SDS011;1661;53.572;10.174;2022-10-16T14:09:21;4.83;;;2.07;;
3297;SDS011;1661;53.572;10.174;2022-10-16T14:11:51;2.33;;;1.80;;
3297;SDS011;1661;53.572;10.174;2022-10-16T14:14:19;8.90;;;3.33;;
3297;SDS011;1661;53.572;10.174;2022-10-16T14:16:47;6.13;;;3.00;;
3297;SDS011;1661;53.572;10.174;2022-10-16T14:19:17;4.07;;;2.57;;
3297;SDS011;1661;53.572;10.174;2022-10-16T14:21:47;8.70;;;2.67;;
3297;SDS011;1661;53.572;10.174;2022-10-16T14:24:21;3.53;;;1.97;;
3297;SDS011;1661;53.572;10.174;2022-10-16T14:26:52;6.63;;;2.87;;
3297;SDS011;1661;53.572;10.174;2022-10-16T14:29:20;4.97;;;2.90;;
3297;SDS011;1661;53.572;10.174;2022-10-16T14:31:53;5.23;;;1.90;;
3297;SDS011;1661;53.572;10.174;2022-10-16T14:34:25;6.97;;;2.00;;
3297;SDS011;1661;53.572;10.174;2022-10-16T14:36:55;5.87;;;2.03;;
3297;SDS011;1661;53.572;10.174;2022-10-16T14:39:22;7.90;;;2.43;;
3297;SDS011;1661;53.572;10.174;2022-10-16T14:41:51;6.63;;;2.27;;
3297;SDS011;1661;53.572;10.174;2022-10-16T14:44:22;6.83;;;2.40;;
3297;SDS011;1661;53.572;10.174;2022-10-16T14:46:54;5.40;;;2.00;;
3297;SDS011;1661;53.572;10.174;2022-10-16T14:49:21;4.53;;;1.77;;
3297;SDS011;1661;53.572;10.174;2022-10-16T14:51:50;15.30;;;2.43;;
3297;SDS011;1661;53.572;10.174;2022-10-16T14:54:18;5.33;;;2.27;;
3297;SDS011;1661;53.572;10.174;2022-10-16T14:56:46;3.20;;;1.40;;
3297;SDS011;1661;53.572;10.174;2022-10-16T14:59:16;8.03;;;2.60;;
3297;SDS011;1661;53.572;10.174;2022-10-16T15:01:45;14.17;;;1.80;;
3297;SDS011;1661;53.572;10.174;2022-10-16T15:04:12;3.50;;;1.60;;
3297;SDS011;1661;53.572;10.174;2022-10-16T15:06:40;4.00;;;2.30;;
3297;SDS011;1661;53.572;10.174;2022-10-16T15:09:10;7.07;;;3.30;;
3297;SDS011;1661;53.572;10.174;2022-10-16T15:11:37;6.40;;;2.50;;
3297;SDS011;1661;53.572;10.174;2022-10-16T15:14:04;9.80;;;2.97;;
3297;SDS011;1661;53.572;10.174;2022-10-16T15:16:31;7.67;;;2.50;;